sensor_id;sensor_type;location;lat;lon;timestamp;temperature;humidity
43697;DHT22;29301;47.620;19.560;2022-08-19T00:00:37;24.80;76.40
43697;DHT22;29301;47.620;19.560;2022-08-19T00:03:04;24.70;75.90
43697;DHT22;29301;47.620;19.560;2022-08-19T00:05:31;24.50;77.40
43697;DHT22;29301;47.620;19.560;2022-08-19T00:07:57;24.30;78.00
43697;DHT22;29301;47.620;19.560;2022-08-19T00:10:23;24.30;78.40
43697;DHT22;29301;47.620;19.560;2022-08-19T00:12:50;24.20;78.30
43697;DHT22;29301;47.620;19.560;2022-08-19T00:15:18;24.10;78.80
43697;DHT22;29301;47.620;19.560;2022-08-19T00:17:45;24.10;78.70
43697;DHT22;29301;47.620;19.560;2022-08-19T00:20:13;23.90;79.60
43697;DHT22;29301;47.620;19.560;2022-08-19T00:22:42;23.60;80.60
43697;DHT22;29301;47.620;19.560;2022-08-19T00:25:08;23.60;81.60
43697;DHT22;29301;47.620;19.560;2022-08-19T00:27:34;23.60;82.10
43697;DHT22;29301;47.620;19.560;2022-08-19T00:30:00;23.60;82.60
43697;DHT22;29301;47.620;19.560;2022-08-19T00:32:28;23.60;82.10
43697;DHT22;29301;47.620;19.560;2022-08-19T00:34:53;23.70;82.80
43697;DHT22;29301;47.620;19.560;2022-08-19T00:37:22;23.80;82.90
43697;DHT22;29301;47.620;19.560;2022-08-19T00:39:49;23.90;83.40
43697;DHT22;29301;47.620;19.560;2022-08-19T00:42:17;23.80;83.70
43697;DHT22;29301;47.620;19.560;2022-08-19T00:44:42;23.90;83.40
43697;DHT22;29301;47.620;19.560;2022-08-19T00:47:08;23.80;83.00
43697;DHT22;29301;47.620;19.560;2022-08-19T00:49:37;23.90;82.80
43697;DHT22;29301;47.620;19.560;2022-08-19T00:52:25;23.90;83.60
43697;DHT22;29301;47.620;19.560;2022-08-19T00:54:54;23.90;82.60
43697;DHT22;29301;47.620;19.560;2022-08-19T00:57:26;24.00;82.70
43697;DHT22;29301;47.620;19.560;2022-08-19T00:59:56;23.90;82.00
43697;DHT22;29301;47.620;19.560;2022-08-19T01:02:23;23.90;82.40
43697;DHT22;29301;47.620;19.560;2022-08-19T01:04:49;24.00;83.20
43697;DHT22;29301;47.620;19.560;2022-08-19T01:07:15;24.00;83.50
43697;DHT22;29301;47.620;19.560;2022-08-19T01:09:41;24.00;83.80
43697;DHT22;29301;47.620;19.560;2022-08-19T01:12:08;24.00;83.10
43697;DHT22;29301;47.620;19.560;2022-08-19T01:14:35;24.00;83.30
43697;DHT22;29301;47.620;19.560;2022-08-19T01:17:02;23.90;82.60
43697;DHT22;29301;47.620;19.560;2022-08-19T01:19:29;24.00;83.10
43697;DHT22;29301;47.620;19.560;2022-08-19T01:24:26;24.00;83.40
43697;DHT22;29301;47.620;19.560;2022-08-19T01:26:52;24.00;83.70
43697;DHT22;29301;47.620;19.560;2022-08-19T01:29:18;24.00;84.70
43697;DHT22;29301;47.620;19.560;2022-08-19T01:31:44;23.90;84.40
43697;DHT22;29301;47.620;19.560;2022-08-19T01:34:09;23.80;84.20
43697;DHT22;29301;47.620;19.560;2022-08-19T01:36:40;23.80;83.80
43697;DHT22;29301;47.620;19.560;2022-08-19T01:39:10;23.70;83.30
43697;DHT22;29301;47.620;19.560;2022-08-19T01:41:37;23.60;83.80
43697;DHT22;29301;47.620;19.560;2022-08-19T01:44:03;23.50;85.80
43697;DHT22;29301;47.620;19.560;2022-08-19T01:46:30;23.50;85.70
43697;DHT22;29301;47.620;19.560;2022-08-19T01:48:56;23.50;86.80
43697;DHT22;29301;47.620;19.560;2022-08-19T01:51:22;23.50;87.20
43697;DHT22;29301;47.620;19.560;2022-08-19T01:53:49;23.50;88.00
43697;DHT22;29301;47.620;19.560;2022-08-19T01:56:16;23.50;88.70
43697;DHT22;29301;47.620;19.560;2022-08-19T01:58:47;23.40;89.60
43697;DHT22;29301;47.620;19.560;2022-08-19T02:01:17;23.40;89.40
43697;DHT22;29301;47.620;19.560;2022-08-19T02:03:42;23.40;88.10
43697;DHT22;29301;47.620;19.560;2022-08-19T02:06:08;23.40;87.50
43697;DHT22;29301;47.620;19.560;2022-08-19T02:08:36;23.50;87.10
43697;DHT22;29301;47.620;19.560;2022-08-19T02:11:04;23.50;88.00
43697;DHT22;29301;47.620;19.560;2022-08-19T02:13:29;23.40;88.70
43697;DHT22;29301;47.620;19.560;2022-08-19T02:15:55;23.40;88.90
43697;DHT22;29301;47.620;19.560;2022-08-19T02:18:21;23.40;89.50
43697;DHT22;29301;47.620;19.560;2022-08-19T02:20:47;23.30;88.90
43697;DHT22;29301;47.620;19.560;2022-08-19T02:23:14;23.30;88.80
43697;DHT22;29301;47.620;19.560;2022-08-19T02:25:41;23.30;88.10
43697;DHT22;29301;47.620;19.560;2022-08-19T02:28:07;23.40;87.80
43697;DHT22;29301;47.620;19.560;2022-08-19T02:30:33;23.30;88.30
43697;DHT22;29301;47.620;19.560;2022-08-19T02:32:58;23.30;87.70
43697;DHT22;29301;47.620;19.560;2022-08-19T02:35:25;23.30;88.20
43697;DHT22;29301;47.620;19.560;2022-08-19T02:37:51;23.20;88.80
43697;DHT22;29301;47.620;19.560;2022-08-19T02:40:36;23.20;88.40
43697;DHT22;29301;47.620;19.560;2022-08-19T02:43:07;23.30;87.30
43697;DHT22;29301;47.620;19.560;2022-08-19T02:45:37;23.40;87.30
43697;DHT22;29301;47.620;19.560;2022-08-19T02:48:04;23.30;86.60
43697;DHT22;29301;47.620;19.560;2022-08-19T02:50:31;23.20;87.20
43697;DHT22;29301;47.620;19.560;2022-08-19T02:52:56;23.10;88.20
43697;DHT22;29301;47.620;19.560;2022-08-19T02:55:23;23.00;88.20
43697;DHT22;29301;47.620;19.560;2022-08-19T02:57:48;23.00;89.10
43697;DHT22;29301;47.620;19.560;2022-08-19T03:00:15;23.00;89.50
43697;DHT22;29301;47.620;19.560;2022-08-19T03:02:41;22.90;90.10
43697;DHT22;29301;47.620;19.560;2022-08-19T03:05:09;22.90;90.10
43697;DHT22;29301;47.620;19.560;2022-08-19T03:07:36;22.90;90.50
43697;DHT22;29301;47.620;19.560;2022-08-19T03:10:03;22.90;90.50
43697;DHT22;29301;47.620;19.560;2022-08-19T03:12:29;22.90;90.40
43697;DHT22;29301;47.620;19.560;2022-08-19T03:14:55;22.90;89.80
43697;DHT22;29301;47.620;19.560;2022-08-19T03:17:21;22.90;89.10
43697;DHT22;29301;47.620;19.560;2022-08-19T03:19:47;22.90;89.30
43697;DHT22;29301;47.620;19.560;2022-08-19T03:22:12;22.90;89.50
43697;DHT22;29301;47.620;19.560;2022-08-19T03:24:39;23.00;88.70
43697;DHT22;29301;47.620;19.560;2022-08-19T03:27:05;23.00;88.10
43697;DHT22;29301;47.620;19.560;2022-08-19T03:29:31;23.10;88.50
43697;DHT22;29301;47.620;19.560;2022-08-19T03:32:03;23.10;89.10
43697;DHT22;29301;47.620;19.560;2022-08-19T03:34:30;23.00;88.10
43697;DHT22;29301;47.620;19.560;2022-08-19T03:36:59;23.00;88.00
43697;DHT22;29301;47.620;19.560;2022-08-19T03:39:28;23.00;89.50
43697;DHT22;29301;47.620;19.560;2022-08-19T03:41:55;22.90;90.30
43697;DHT22;29301;47.620;19.560;2022-08-19T03:44:25;22.80;90.30
43697;DHT22;29301;47.620;19.560;2022-08-19T03:46:55;22.80;90.40
43697;DHT22;29301;47.620;19.560;2022-08-19T03:49:23;22.70;90.60
43697;DHT22;29301;47.620;19.560;2022-08-19T03:51:50;22.80;90.10
43697;DHT22;29301;47.620;19.560;2022-08-19T03:54:20;22.70;90.30
43697;DHT22;29301;47.620;19.560;2022-08-19T03:56:48;22.80;90.20
43697;DHT22;29301;47.620;19.560;2022-08-19T03:59:19;22.80;90.00
43697;DHT22;29301;47.620;19.560;2022-08-19T04:01:45;22.80;89.20
43697;DHT22;29301;47.620;19.560;2022-08-19T04:04:11;22.90;90.00
43697;DHT22;29301;47.620;19.560;2022-08-19T04:06:38;22.80;90.10
43697;DHT22;29301;47.620;19.560;2022-08-19T04:09:06;22.70;91.10
43697;DHT22;29301;47.620;19.560;2022-08-19T04:11:39;22.60;91.20
43697;DHT22;29301;47.620;19.560;2022-08-19T04:14:08;22.70;91.30
43697;DHT22;29301;47.620;19.560;2022-08-19T04:16:35;22.70;91.20
43697;DHT22;29301;47.620;19.560;2022-08-19T04:19:02;22.60;91.20
43697;DHT22;29301;47.620;19.560;2022-08-19T04:21:28;22.60;91.30
43697;DHT22;29301;47.620;19.560;2022-08-19T04:23:55;22.60;91.10
43697;DHT22;29301;47.620;19.560;2022-08-19T04:26:30;22.50;91.20
43697;DHT22;29301;47.620;19.560;2022-08-19T04:29:00;22.30;91.90
43697;DHT22;29301;47.620;19.560;2022-08-19T04:31:28;22.20;92.40
43697;DHT22;29301;47.620;19.560;2022-08-19T04:33:57;22.30;92.60
43697;DHT22;29301;47.620;19.560;2022-08-19T04:36:29;22.40;92.20
43697;DHT22;29301;47.620;19.560;2022-08-19T04:38:58;22.60;92.20
43697;DHT22;29301;47.620;19.560;2022-08-19T04:41:25;22.70;91.90
43697;DHT22;29301;47.620;19.560;2022-08-19T04:44:10;22.70;92.20
43697;DHT22;29301;47.620;19.560;2022-08-19T04:46:37;22.80;92.10
43697;DHT22;29301;47.620;19.560;2022-08-19T04:49:04;22.90;91.80
43697;DHT22;29301;47.620;19.560;2022-08-19T04:51:32;22.90;91.90
43697;DHT22;29301;47.620;19.560;2022-08-19T04:53:58;23.00;92.30
43697;DHT22;29301;47.620;19.560;2022-08-19T04:56:25;23.00;92.10
43697;DHT22;29301;47.620;19.560;2022-08-19T04:58:52;23.10;92.10
43697;DHT22;29301;47.620;19.560;2022-08-19T05:01:22;23.10;91.70
43697;DHT22;29301;47.620;19.560;2022-08-19T05:03:48;23.20;91.80
43697;DHT22;29301;47.620;19.560;2022-08-19T05:06:16;23.20;91.40
43697;DHT22;29301;47.620;19.560;2022-08-19T05:08:43;23.30;91.30
43697;DHT22;29301;47.620;19.560;2022-08-19T05:11:13;23.40;91.70
43697;DHT22;29301;47.620;19.560;2022-08-19T05:13:40;23.40;92.10
43697;DHT22;29301;47.620;19.560;2022-08-19T05:16:06;23.50;92.80
43697;DHT22;29301;47.620;19.560;2022-08-19T05:18:32;23.50;93.50
43697;DHT22;29301;47.620;19.560;2022-08-19T05:21:19;23.50;93.20
43697;DHT22;29301;47.620;19.560;2022-08-19T05:24:05;23.50;93.20
43697;DHT22;29301;47.620;19.560;2022-08-19T05:26:38;23.70;92.00
43697;DHT22;29301;47.620;19.560;2022-08-19T05:29:05;23.70;91.50
43697;DHT22;29301;47.620;19.560;2022-08-19T05:31:33;23.80;91.30
43697;DHT22;29301;47.620;19.560;2022-08-19T05:33:59;23.90;91.00
43697;DHT22;29301;47.620;19.560;2022-08-19T05:36:27;23.90;90.70
43697;DHT22;29301;47.620;19.560;2022-08-19T05:38:53;24.00;90.20
43697;DHT22;29301;47.620;19.560;2022-08-19T05:41:20;24.00;90.00
43697;DHT22;29301;47.620;19.560;2022-08-19T05:43:46;24.00;89.20
43697;DHT22;29301;47.620;19.560;2022-08-19T05:46:19;24.10;89.50
43697;DHT22;29301;47.620;19.560;2022-08-19T05:48:45;24.20;88.50
43697;DHT22;29301;47.620;19.560;2022-08-19T05:51:11;24.20;87.10
43697;DHT22;29301;47.620;19.560;2022-08-19T05:53:37;24.30;86.70
43697;DHT22;29301;47.620;19.560;2022-08-19T05:56:04;24.30;86.00
43697;DHT22;29301;47.620;19.560;2022-08-19T05:58:30;24.40;85.80
43697;DHT22;29301;47.620;19.560;2022-08-19T06:00:58;24.50;84.90
43697;DHT22;29301;47.620;19.560;2022-08-19T06:03:23;24.70;84.70
43697;DHT22;29301;47.620;19.560;2022-08-19T06:05:49;24.80;83.80
43697;DHT22;29301;47.620;19.560;2022-08-19T06:08:15;24.90;81.50
43697;DHT22;29301;47.620;19.560;2022-08-19T06:10:43;25.10;79.50
43697;DHT22;29301;47.620;19.560;2022-08-19T06:13:09;25.20;78.70
43697;DHT22;29301;47.620;19.560;2022-08-19T06:15:35;25.30;78.30
43697;DHT22;29301;47.620;19.560;2022-08-19T06:18:00;25.30;78.10
43697;DHT22;29301;47.620;19.560;2022-08-19T06:20:26;25.50;77.50
43697;DHT22;29301;47.620;19.560;2022-08-19T06:22:52;25.60;76.30
43697;DHT22;29301;47.620;19.560;2022-08-19T06:25:18;25.70;76.30
43697;DHT22;29301;47.620;19.560;2022-08-19T06:27:44;25.70;75.60
43697;DHT22;29301;47.620;19.560;2022-08-19T06:30:10;25.80;75.20
43697;DHT22;29301;47.620;19.560;2022-08-19T06:32:37;25.90;74.60
43697;DHT22;29301;47.620;19.560;2022-08-19T06:35:03;26.10;73.90
43697;DHT22;29301;47.620;19.560;2022-08-19T06:37:30;26.20;72.70
43697;DHT22;29301;47.620;19.560;2022-08-19T06:39:56;26.30;72.60
43697;DHT22;29301;47.620;19.560;2022-08-19T06:42:22;26.40;72.10
43697;DHT22;29301;47.620;19.560;2022-08-19T06:44:48;26.50;70.90
43697;DHT22;29301;47.620;19.560;2022-08-19T06:47:18;26.60;70.60
43697;DHT22;29301;47.620;19.560;2022-08-19T06:49:44;26.70;70.00
43697;DHT22;29301;47.620;19.560;2022-08-19T06:52:10;26.80;69.90
43697;DHT22;29301;47.620;19.560;2022-08-19T06:54:40;27.00;68.70
43697;DHT22;29301;47.620;19.560;2022-08-19T06:57:08;27.20;67.80
43697;DHT22;29301;47.620;19.560;2022-08-19T06:59:38;27.30;67.50
43697;DHT22;29301;47.620;19.560;2022-08-19T07:02:05;27.40;67.20
43697;DHT22;29301;47.620;19.560;2022-08-19T07:04:33;27.50;66.50
43697;DHT22;29301;47.620;19.560;2022-08-19T07:07:08;27.60;65.70
43697;DHT22;29301;47.620;19.560;2022-08-19T07:09:36;27.70;65.40
43697;DHT22;29301;47.620;19.560;2022-08-19T07:12:06;27.80;65.50
43697;DHT22;29301;47.620;19.560;2022-08-19T07:14:33;28.10;64.80
43697;DHT22;29301;47.620;19.560;2022-08-19T07:17:04;28.20;64.10
43697;DHT22;29301;47.620;19.560;2022-08-19T07:19:30;28.40;64.00
43697;DHT22;29301;47.620;19.560;2022-08-19T07:21:57;28.60;63.10
43697;DHT22;29301;47.620;19.560;2022-08-19T07:24:26;28.60;63.00
43697;DHT22;29301;47.620;19.560;2022-08-19T07:26:54;28.70;63.30
43697;DHT22;29301;47.620;19.560;2022-08-19T07:29:21;28.80;62.30
43697;DHT22;29301;47.620;19.560;2022-08-19T07:31:49;29.00;62.30
43697;DHT22;29301;47.620;19.560;2022-08-19T07:34:16;29.10;61.30
43697;DHT22;29301;47.620;19.560;2022-08-19T07:36:42;29.20;61.30
43697;DHT22;29301;47.620;19.560;2022-08-19T07:39:15;29.40;60.80
43697;DHT22;29301;47.620;19.560;2022-08-19T07:41:42;29.60;61.20
43697;DHT22;29301;47.620;19.560;2022-08-19T07:44:08;29.80;61.00
43697;DHT22;29301;47.620;19.560;2022-08-19T07:46:36;29.70;60.00
43697;DHT22;29301;47.620;19.560;2022-08-19T07:49:04;29.80;59.90
43697;DHT22;29301;47.620;19.560;2022-08-19T07:51:31;29.80;59.50
43697;DHT22;29301;47.620;19.560;2022-08-19T07:53:57;30.00;59.40
43697;DHT22;29301;47.620;19.560;2022-08-19T07:56:23;30.10;58.80
43697;DHT22;29301;47.620;19.560;2022-08-19T07:58:51;30.30;59.00
43697;DHT22;29301;47.620;19.560;2022-08-19T08:01:23;30.40;58.40
43697;DHT22;29301;47.620;19.560;2022-08-19T08:03:51;30.40;57.40
43697;DHT22;29301;47.620;19.560;2022-08-19T08:06:36;30.50;57.70
43697;DHT22;29301;47.620;19.560;2022-08-19T08:09:33;30.60;57.20
43697;DHT22;29301;47.620;19.560;2022-08-19T08:12:04;30.80;57.20
43697;DHT22;29301;47.620;19.560;2022-08-19T08:14:38;31.10;57.20
43697;DHT22;29301;47.620;19.560;2022-08-19T08:17:05;31.20;56.00
43697;DHT22;29301;47.620;19.560;2022-08-19T08:19:31;31.30;55.40
43697;DHT22;29301;47.620;19.560;2022-08-19T08:21:59;31.50;55.10
43697;DHT22;29301;47.620;19.560;2022-08-19T08:24:28;31.60;54.80
43697;DHT22;29301;47.620;19.560;2022-08-19T08:26:54;31.60;54.70
43697;DHT22;29301;47.620;19.560;2022-08-19T08:29:20;31.70;54.70
43697;DHT22;29301;47.620;19.560;2022-08-19T08:31:46;31.80;54.40
43697;DHT22;29301;47.620;19.560;2022-08-19T08:34:13;31.80;54.10
43697;DHT22;29301;47.620;19.560;2022-08-19T08:36:43;31.80;53.90
43697;DHT22;29301;47.620;19.560;2022-08-19T08:39:16;31.90;53.50
43697;DHT22;29301;47.620;19.560;2022-08-19T08:41:53;32.10;53.00
43697;DHT22;29301;47.620;19.560;2022-08-19T08:44:25;32.30;53.10
43697;DHT22;29301;47.620;19.560;2022-08-19T08:47:00;32.30;52.90
43697;DHT22;29301;47.620;19.560;2022-08-19T08:52:13;32.30;52.10
43697;DHT22;29301;47.620;19.560;2022-08-19T08:54:43;32.00;52.30
43697;DHT22;29301;47.620;19.560;2022-08-19T09:00:34;32.30;52.10
43697;DHT22;29301;47.620;19.560;2022-08-19T09:03:00;32.60;51.60
43697;DHT22;29301;47.620;19.560;2022-08-19T09:05:45;32.70;51.30
43697;DHT22;29301;47.620;19.560;2022-08-19T09:10:56;33.10;50.70
43697;DHT22;29301;47.620;19.560;2022-08-19T09:16:22;33.10;51.00
43697;DHT22;29301;47.620;19.560;2022-08-19T09:18:55;33.30;50.20
43697;DHT22;29301;47.620;19.560;2022-08-19T09:21:23;33.50;50.30
43697;DHT22;29301;47.620;19.560;2022-08-19T09:23:50;33.60;49.70
43697;DHT22;29301;47.620;19.560;2022-08-19T09:26:18;33.80;49.70
43697;DHT22;29301;47.620;19.560;2022-08-19T09:28:47;33.90;50.40
43697;DHT22;29301;47.620;19.560;2022-08-19T09:31:16;33.90;51.50
43697;DHT22;29301;47.620;19.560;2022-08-19T09:33:42;33.80;50.10
43697;DHT22;29301;47.620;19.560;2022-08-19T09:36:13;33.30;49.30
43697;DHT22;29301;47.620;19.560;2022-08-19T09:38:40;33.00;50.40
43697;DHT22;29301;47.620;19.560;2022-08-19T09:41:09;33.20;50.70
43697;DHT22;29301;47.620;19.560;2022-08-19T09:43:38;33.20;50.40
43697;DHT22;29301;47.620;19.560;2022-08-19T09:46:04;33.30;49.90
43697;DHT22;29301;47.620;19.560;2022-08-19T09:48:37;33.10;49.50
43697;DHT22;29301;47.620;19.560;2022-08-19T09:51:09;33.10;50.10
43697;DHT22;29301;47.620;19.560;2022-08-19T09:53:36;33.30;49.90
43697;DHT22;29301;47.620;19.560;2022-08-19T09:56:02;33.30;49.40
43697;DHT22;29301;47.620;19.560;2022-08-19T09:58:29;33.30;49.60
43697;DHT22;29301;47.620;19.560;2022-08-19T10:00:59;33.50;49.60
43697;DHT22;29301;47.620;19.560;2022-08-19T10:03:26;33.70;49.30
43697;DHT22;29301;47.620;19.560;2022-08-19T10:05:53;34.00;49.50
43697;DHT22;29301;47.620;19.560;2022-08-19T10:08:23;34.00;49.00
43697;DHT22;29301;47.620;19.560;2022-08-19T10:10:49;34.20;49.10
43697;DHT22;29301;47.620;19.560;2022-08-19T10:13:18;34.10;49.00
43697;DHT22;29301;47.620;19.560;2022-08-19T10:15:45;34.20;49.10
43697;DHT22;29301;47.620;19.560;2022-08-19T10:18:11;34.10;49.30
43697;DHT22;29301;47.620;19.560;2022-08-19T10:20:37;33.90;48.70
43697;DHT22;29301;47.620;19.560;2022-08-19T10:23:03;34.00;49.50
43697;DHT22;29301;47.620;19.560;2022-08-19T10:25:29;34.30;48.80
43697;DHT22;29301;47.620;19.560;2022-08-19T10:27:55;34.50;48.40
43697;DHT22;29301;47.620;19.560;2022-08-19T10:30:21;34.50;47.50
43697;DHT22;29301;47.620;19.560;2022-08-19T10:32:47;34.50;47.60
43697;DHT22;29301;47.620;19.560;2022-08-19T10:35:13;34.70;47.90
43697;DHT22;29301;47.620;19.560;2022-08-19T10:37:40;34.70;47.20
43697;DHT22;29301;47.620;19.560;2022-08-19T10:40:10;34.70;46.90
43697;DHT22;29301;47.620;19.560;2022-08-19T10:42:37;34.80;47.30
43697;DHT22;29301;47.620;19.560;2022-08-19T10:45:04;34.90;46.70
43697;DHT22;29301;47.620;19.560;2022-08-19T10:47:32;34.80;46.20
43697;DHT22;29301;47.620;19.560;2022-08-19T10:49:58;34.90;46.50
43697;DHT22;29301;47.620;19.560;2022-08-19T10:52:44;34.80;45.60
43697;DHT22;29301;47.620;19.560;2022-08-19T10:55:11;34.70;45.70
43697;DHT22;29301;47.620;19.560;2022-08-19T10:57:55;34.80;45.80
43697;DHT22;29301;47.620;19.560;2022-08-19T11:00:22;34.90;45.90
43697;DHT22;29301;47.620;19.560;2022-08-19T11:02:49;35.20;45.90
43697;DHT22;29301;47.620;19.560;2022-08-19T11:05:15;35.20;45.80
43697;DHT22;29301;47.620;19.560;2022-08-19T11:07:42;35.10;45.10
43697;DHT22;29301;47.620;19.560;2022-08-19T11:10:13;35.00;45.60
43697;DHT22;29301;47.620;19.560;2022-08-19T11:12:40;35.20;45.70
43697;DHT22;29301;47.620;19.560;2022-08-19T11:15:08;35.20;45.70
43697;DHT22;29301;47.620;19.560;2022-08-19T11:17:37;35.30;44.70
43697;DHT22;29301;47.620;19.560;2022-08-19T11:20:06;35.20;44.60
43697;DHT22;29301;47.620;19.560;2022-08-19T11:22:32;35.30;44.30
43697;DHT22;29301;47.620;19.560;2022-08-19T11:24:58;35.30;44.80
43697;DHT22;29301;47.620;19.560;2022-08-19T11:27:23;35.40;44.70
43697;DHT22;29301;47.620;19.560;2022-08-19T11:29:49;35.50;45.30
43697;DHT22;29301;47.620;19.560;2022-08-19T11:32:15;35.60;44.80
43697;DHT22;29301;47.620;19.560;2022-08-19T11:34:41;35.70;44.70
43697;DHT22;29301;47.620;19.560;2022-08-19T11:37:07;35.50;43.70
43697;DHT22;29301;47.620;19.560;2022-08-19T11:39:35;35.40;44.30
43697;DHT22;29301;47.620;19.560;2022-08-19T11:42:03;35.50;43.90
43697;DHT22;29301;47.620;19.560;2022-08-19T11:44:49;35.70;44.80
43697;DHT22;29301;47.620;19.560;2022-08-19T11:47:15;35.90;44.30
43697;DHT22;29301;47.620;19.560;2022-08-19T11:49:41;35.60;43.70
43697;DHT22;29301;47.620;19.560;2022-08-19T11:52:08;35.60;43.90
43697;DHT22;29301;47.620;19.560;2022-08-19T11:54:34;35.50;44.00
43697;DHT22;29301;47.620;19.560;2022-08-19T11:57:02;35.60;44.00
43697;DHT22;29301;47.620;19.560;2022-08-19T11:59:28;35.70;44.40
43697;DHT22;29301;47.620;19.560;2022-08-19T12:01:55;35.80;43.90
43697;DHT22;29301;47.620;19.560;2022-08-19T12:04:21;35.80;43.60
43697;DHT22;29301;47.620;19.560;2022-08-19T12:06:47;35.70;43.60
43697;DHT22;29301;47.620;19.560;2022-08-19T12:09:13;35.80;43.70
43697;DHT22;29301;47.620;19.560;2022-08-19T12:11:40;35.80;43.80
43697;DHT22;29301;47.620;19.560;2022-08-19T12:14:10;35.80;43.90
43697;DHT22;29301;47.620;19.560;2022-08-19T12:16:36;36.00;43.70
43697;DHT22;29301;47.620;19.560;2022-08-19T12:19:04;35.80;43.30
43697;DHT22;29301;47.620;19.560;2022-08-19T12:21:33;35.60;43.50
43697;DHT22;29301;47.620;19.560;2022-08-19T12:24:00;35.60;43.40
43697;DHT22;29301;47.620;19.560;2022-08-19T12:26:28;35.70;43.70
43697;DHT22;29301;47.620;19.560;2022-08-19T12:28:54;35.80;44.00
43697;DHT22;29301;47.620;19.560;2022-08-19T12:31:20;35.80;44.00
43697;DHT22;29301;47.620;19.560;2022-08-19T12:33:47;35.90;43.90
43697;DHT22;29301;47.620;19.560;2022-08-19T12:36:14;35.90;43.80
43697;DHT22;29301;47.620;19.560;2022-08-19T12:38:41;36.10;44.20
43697;DHT22;29301;47.620;19.560;2022-08-19T12:41:10;36.20;43.60
43697;DHT22;29301;47.620;19.560;2022-08-19T12:43:37;36.20;43.80
43697;DHT22;29301;47.620;19.560;2022-08-19T12:46:06;36.20;43.50
43697;DHT22;29301;47.620;19.560;2022-08-19T12:48:33;36.20;43.60
43697;DHT22;29301;47.620;19.560;2022-08-19T12:51:00;36.20;43.30
43697;DHT22;29301;47.620;19.560;2022-08-19T12:53:26;36.10;43.20
43697;DHT22;29301;47.620;19.560;2022-08-19T12:55:57;36.00;43.10
43697;DHT22;29301;47.620;19.560;2022-08-19T12:58:25;35.80;43.40
43697;DHT22;29301;47.620;19.560;2022-08-19T13:00:51;36.00;43.80
43697;DHT22;29301;47.620;19.560;2022-08-19T13:03:16;36.20;44.10
43697;DHT22;29301;47.620;19.560;2022-08-19T13:05:42;36.30;44.50
43697;DHT22;29301;47.620;19.560;2022-08-19T13:08:08;36.30;43.70
43697;DHT22;29301;47.620;19.560;2022-08-19T13:10:35;36.20;43.10
43697;DHT22;29301;47.620;19.560;2022-08-19T13:13:06;36.00;43.50
43697;DHT22;29301;47.620;19.560;2022-08-19T13:15:40;36.20;43.90
43697;DHT22;29301;47.620;19.560;2022-08-19T13:18:07;36.20;43.20
43697;DHT22;29301;47.620;19.560;2022-08-19T13:20:35;36.20;42.90
43697;DHT22;29301;47.620;19.560;2022-08-19T13:23:00;36.00;43.00
43697;DHT22;29301;47.620;19.560;2022-08-19T13:25:26;35.80;43.00
43697;DHT22;29301;47.620;19.560;2022-08-19T13:27:52;35.80;43.10
43697;DHT22;29301;47.620;19.560;2022-08-19T13:30:19;36.10;43.10
43697;DHT22;29301;47.620;19.560;2022-08-19T13:33:04;36.20;43.20
43697;DHT22;29301;47.620;19.560;2022-08-19T13:35:42;36.30;43.10
43697;DHT22;29301;47.620;19.560;2022-08-19T13:38:09;36.40;43.30
43697;DHT22;29301;47.620;19.560;2022-08-19T13:40:35;36.30;42.90
43697;DHT22;29301;47.620;19.560;2022-08-19T13:43:03;36.10;43.00
43697;DHT22;29301;47.620;19.560;2022-08-19T13:45:30;36.10;43.20
43697;DHT22;29301;47.620;19.560;2022-08-19T13:47:59;36.20;43.50
43697;DHT22;29301;47.620;19.560;2022-08-19T13:50:27;36.30;43.40
43697;DHT22;29301;47.620;19.560;2022-08-19T13:52:54;36.40;42.90
43697;DHT22;29301;47.620;19.560;2022-08-19T13:55:20;36.40;42.90
43697;DHT22;29301;47.620;19.560;2022-08-19T13:57:50;36.30;43.10
43697;DHT22;29301;47.620;19.560;2022-08-19T14:00:18;36.40;43.30
43697;DHT22;29301;47.620;19.560;2022-08-19T14:02:45;36.40;43.00
43697;DHT22;29301;47.620;19.560;2022-08-19T14:05:14;36.20;42.90
43697;DHT22;29301;47.620;19.560;2022-08-19T14:07:39;36.20;42.70
43697;DHT22;29301;47.620;19.560;2022-08-19T14:10:09;36.00;42.40
43697;DHT22;29301;47.620;19.560;2022-08-19T14:12:35;36.10;42.80
43697;DHT22;29301;47.620;19.560;2022-08-19T14:15:04;36.10;42.60
43697;DHT22;29301;47.620;19.560;2022-08-19T14:17:30;36.00;42.60
43697;DHT22;29301;47.620;19.560;2022-08-19T14:19:59;35.80;43.00
43697;DHT22;29301;47.620;19.560;2022-08-19T14:22:36;35.90;42.20
43697;DHT22;29301;47.620;19.560;2022-08-19T14:25:03;35.90;42.30
43697;DHT22;29301;47.620;19.560;2022-08-19T14:27:32;35.90;42.10
43697;DHT22;29301;47.620;19.560;2022-08-19T14:29:58;35.90;42.50
43697;DHT22;29301;47.620;19.560;2022-08-19T14:32:24;36.00;42.90
43697;DHT22;29301;47.620;19.560;2022-08-19T14:34:53;36.00;42.90
43697;DHT22;29301;47.620;19.560;2022-08-19T14:37:18;36.00;42.60
43697;DHT22;29301;47.620;19.560;2022-08-19T14:39:44;36.10;42.50
43697;DHT22;29301;47.620;19.560;2022-08-19T14:42:11;36.10;42.20
43697;DHT22;29301;47.620;19.560;2022-08-19T14:44:38;36.00;42.40
43697;DHT22;29301;47.620;19.560;2022-08-19T14:47:04;36.10;42.40
43697;DHT22;29301;47.620;19.560;2022-08-19T14:49:29;36.10;42.60
43697;DHT22;29301;47.620;19.560;2022-08-19T14:51:55;36.00;42.30
43697;DHT22;29301;47.620;19.560;2022-08-19T14:54:21;36.00;42.40
43697;DHT22;29301;47.620;19.560;2022-08-19T14:56:48;36.00;42.70
43697;DHT22;29301;47.620;19.560;2022-08-19T14:59:14;36.00;42.50
43697;DHT22;29301;47.620;19.560;2022-08-19T15:01:40;36.00;42.80
43697;DHT22;29301;47.620;19.560;2022-08-19T15:04:05;36.00;42.70
43697;DHT22;29301;47.620;19.560;2022-08-19T15:06:31;35.80;42.60
43697;DHT22;29301;47.620;19.560;2022-08-19T15:08:58;35.70;42.90
43697;DHT22;29301;47.620;19.560;2022-08-19T15:11:25;35.70;42.80
43697;DHT22;29301;47.620;19.560;2022-08-19T15:13:53;35.80;42.90
43697;DHT22;29301;47.620;19.560;2022-08-19T15:16:20;35.80;42.80
43697;DHT22;29301;47.620;19.560;2022-08-19T15:18:49;35.60;42.00
43697;DHT22;29301;47.620;19.560;2022-08-19T15:21:15;35.50;42.30
43697;DHT22;29301;47.620;19.560;2022-08-19T15:23:48;35.50;42.40
43697;DHT22;29301;47.620;19.560;2022-08-19T15:26:16;35.50;42.60
43697;DHT22;29301;47.620;19.560;2022-08-19T15:28:43;35.30;42.40
43697;DHT22;29301;47.620;19.560;2022-08-19T15:31:09;35.20;42.60
43697;DHT22;29301;47.620;19.560;2022-08-19T15:33:38;35.30;42.40